createdAt,value
2022-11-09T00:00:08.872Z,84.46
2022-11-09T00:01:08.862Z,84.60
2022-11-09T00:02:08.860Z,84.45
2022-11-09T00:03:08.833Z,84.30
2022-11-09T00:04:08.831Z,84.24
2022-11-09T00:05:08.896Z,84.28
2022-11-09T00:06:08.806Z,84.51
2022-11-09T00:07:09.057Z,84.54
2022-11-09T00:08:08.803Z,84.65
2022-11-09T00:09:08.785Z,84.67
2022-11-09T00:10:08.798Z,84.70
2022-11-09T00:11:08.877Z,84.78
2022-11-09T00:12:08.748Z,84.67
2022-11-09T00:13:08.773Z,84.70
2022-11-09T00:14:08.732Z,84.98
2022-11-09T00:15:08.717Z,84.98
2022-11-09T00:16:08.706Z,84.82
2022-11-09T00:17:08.795Z,84.75
2022-11-09T00:18:08.700Z,84.72
2022-11-09T00:19:08.687Z,85.07
2022-11-09T00:20:08.666Z,85.33
2022-11-09T00:21:08.716Z,85.33
2022-11-09T00:22:08.696Z,85.31
2022-11-09T00:23:08.642Z,85.01
2022-11-09T00:24:08.634Z,84.91
2022-11-09T00:25:08.672Z,85.15
2022-11-09T00:26:08.629Z,85.30
2022-11-09T00:27:08.656Z,85.20
2022-11-09T00:28:08.604Z,85.06
2022-11-09T00:29:08.583Z,84.93
2022-11-09T00:30:08.575Z,85.05
2022-11-09T00:31:08.558Z,85.44
2022-11-09T00:32:08.620Z,85.57
2022-11-09T00:33:08.543Z,85.60
2022-11-09T00:34:08.538Z,85.71
2022-11-09T00:35:08.547Z,85.57
2022-11-09T00:36:08.520Z,85.44
2022-11-09T00:37:08.497Z,85.32
2022-11-09T00:38:08.632Z,85.27
2022-11-09T00:39:08.518Z,85.19
2022-11-09T00:40:08.502Z,85.28
2022-11-09T00:41:08.500Z,85.17
2022-11-09T00:42:08.453Z,85.07
2022-11-09T00:43:08.500Z,85.12
2022-11-09T00:44:08.453Z,85.03
2022-11-09T00:45:08.473Z,85.01
2022-11-09T00:46:08.534Z,84.86
2022-11-09T00:47:08.410Z,84.79
2022-11-09T00:48:08.460Z,84.84
2022-11-09T00:49:08.407Z,84.70
2022-11-09T00:50:08.384Z,84.57
2022-11-09T00:51:08.412Z,84.41
2022-11-09T00:52:08.374Z,84.37
2022-11-09T00:53:08.350Z,84.30
2022-11-09T00:54:08.399Z,84.23
2022-11-09T00:55:08.474Z,84.13
2022-11-09T00:56:08.373Z,84.43
2022-11-09T00:57:08.347Z,84.46
2022-11-09T00:58:08.324Z,84.61
2022-11-09T00:59:08.296Z,84.64
2022-11-09T01:00:08.303Z,84.82
2022-11-09T01:01:08.373Z,84.81
2022-11-09T01:02:08.315Z,84.98
2022-11-09T01:03:08.246Z,84.96
2022-11-09T01:04:08.252Z,84.91
2022-11-09T01:05:08.277Z,84.84
2022-11-09T01:06:08.291Z,84.69
2022-11-09T01:07:08.351Z,84.72
2022-11-09T01:08:08.276Z,85.00
2022-11-09T01:09:08.240Z,84.99
2022-11-09T01:10:08.189Z,85.02
2022-11-09T01:11:08.219Z,85.18
2022-11-09T01:12:08.172Z,85.36
2022-11-09T01:13:08.160Z,85.34
2022-11-09T01:14:08.156Z,85.24
2022-11-09T01:15:08.177Z,85.18
2022-11-09T01:16:08.127Z,85.38
2022-11-09T01:17:08.107Z,85.47
2022-11-09T01:18:08.112Z,85.53
2022-11-09T01:19:08.095Z,85.59
2022-11-09T01:20:08.091Z,85.68
2022-11-09T01:21:08.153Z,85.75
2022-11-09T01:22:08.064Z,85.87
2022-11-09T01:23:08.090Z,86.05
2022-11-09T01:24:08.100Z,86.12
2022-11-09T01:25:08.027Z,86.20
2022-11-09T01:26:08.068Z,86.31
2022-11-09T01:27:08.021Z,86.49
2022-11-09T01:28:08.051Z,86.64
2022-11-09T01:29:08.036Z,86.73
2022-11-09T01:30:08.007Z,86.77
2022-11-09T01:31:07.987Z,86.76
2022-11-09T01:32:08.019Z,86.85
2022-11-09T01:33:08.003Z,86.82
2022-11-09T01:34:07.969Z,86.85
2022-11-09T01:35:07.957Z,86.92
2022-11-09T01:36:07.932Z,86.84
2022-11-09T01:37:07.919Z,86.83
2022-11-09T01:38:07.911Z,86.72
2022-11-09T01:39:07.968Z,86.62
2022-11-09T01:40:08.001Z,86.67
2022-11-09T01:41:07.874Z,86.71
2022-11-09T01:42:07.880Z,86.76
2022-11-09T01:43:07.933Z,86.71
2022-11-09T01:44:07.847Z,86.62
2022-11-09T01:45:07.875Z,86.50
2022-11-09T01:46:07.916Z,86.47
2022-11-09T01:47:07.821Z,86.42
2022-11-09T01:48:07.813Z,86.37
2022-11-09T01:49:07.859Z,86.33
2022-11-09T01:50:07.797Z,86.16
2022-11-09T01:51:07.818Z,85.92
2022-11-09T01:52:07.782Z,85.82
2022-11-09T01:53:07.838Z,85.81
2022-11-09T01:54:07.750Z,85.57
2022-11-09T01:55:07.755Z,85.43
2022-11-09T01:56:07.773Z,85.26
2022-11-09T01:57:07.727Z,85.11
2022-11-09T01:58:07.741Z,84.89
2022-11-09T01:59:07.843Z,84.69
2022-11-09T02:00:07.767Z,84.53
2022-11-09T02:02:25.481Z,83.79
2022-11-09T02:03:26.447Z,83.42
2022-11-09T02:04:26.386Z,83.16
2022-11-09T02:05:26.395Z,82.99
2022-11-09T02:06:26.561Z,82.85
2022-11-09T02:07:26.373Z,82.57
2022-11-09T02:08:26.393Z,82.43
2022-11-09T02:09:26.426Z,82.00
2022-11-09T02:10:26.356Z,81.49
2022-11-09T02:11:26.354Z,80.92
2022-11-09T02:12:26.386Z,80.77
2022-11-09T02:13:26.584Z,80.79
2022-11-09T02:14:26.337Z,80.91
2022-11-09T02:15:26.343Z,81.10
2022-11-09T02:16:26.376Z,81.53
2022-11-09T02:17:26.245Z,82.01
2022-11-09T02:18:26.344Z,82.30
2022-11-09T02:19:26.227Z,82.66
2022-11-09T02:20:26.290Z,82.75
2022-11-09T02:21:26.247Z,82.86
2022-11-09T02:22:26.212Z,82.81
2022-11-09T02:23:26.190Z,82.76
2022-11-09T02:24:26.267Z,82.69
2022-11-09T02:25:26.196Z,82.50
2022-11-09T02:26:26.204Z,82.32
2022-11-09T02:27:26.157Z,82.12
2022-11-09T02:28:26.148Z,81.70
2022-11-09T02:29:26.142Z,81.59
2022-11-09T02:30:26.123Z,81.54
2022-11-09T02:31:26.166Z,81.27
2022-11-09T02:32:32.599Z,81.20
2022-11-09T02:33:26.089Z,81.07
2022-11-09T02:34:26.117Z,81.03
2022-11-09T02:35:26.099Z,81.59
2022-11-09T02:36:26.123Z,81.73
2022-11-09T02:37:26.089Z,82.08
2022-11-09T02:38:26.090Z,82.18
2022-11-09T02:39:26.050Z,82.01
2022-11-09T02:40:26.071Z,82.16
2022-11-09T02:41:26.010Z,82.52
2022-11-09T02:42:25.998Z,82.79
2022-11-09T02:43:26.011Z,82.86
2022-11-09T02:44:26.004Z,83.13
2022-11-09T02:45:26.020Z,83.33
2022-11-09T02:46:25.982Z,83.68
2022-11-09T02:47:25.944Z,83.89
2022-11-09T02:48:25.941Z,84.13
2022-11-09T02:49:25.927Z,84.31
2022-11-09T02:50:25.930Z,84.43
2022-11-09T02:51:25.969Z,84.57
2022-11-09T02:52:25.896Z,84.75
2022-11-09T02:53:25.950Z,84.87
2022-11-09T02:54:25.881Z,84.97
2022-11-09T02:55:25.909Z,85.03
2022-11-09T02:56:25.862Z,85.17
2022-11-09T02:57:25.869Z,85.21
2022-11-09T02:58:25.891Z,85.20
2022-11-09T02:59:25.848Z,85.27
2022-11-09T03:00:25.818Z,85.40
2022-11-09T03:01:25.879Z,85.47
2022-11-09T03:02:25.799Z,85.64
2022-11-09T03:03:25.846Z,85.75
2022-11-09T03:04:25.776Z,85.95
2022-11-09T03:05:25.768Z,86.11
2022-11-09T03:06:25.819Z,86.22
2022-11-09T03:07:25.840Z,86.26
2022-11-09T03:08:25.755Z,86.33
2022-11-09T03:09:25.723Z,86.46
2022-11-09T03:10:25.761Z,86.59
2022-11-09T03:11:25.703Z,86.68
2022-11-09T03:12:25.700Z,86.67
2022-11-09T03:13:25.754Z,86.78
2022-11-09T03:14:25.717Z,86.89
2022-11-09T03:15:25.674Z,86.85
2022-11-09T03:16:25.669Z,86.80
2022-11-09T03:17:25.641Z,86.71
2022-11-09T03:18:25.643Z,86.62
2022-11-09T03:19:25.693Z,86.56
2022-11-09T03:20:25.627Z,86.47
2022-11-09T03:21:25.609Z,86.37
2022-11-09T03:22:25.605Z,86.29
2022-11-09T03:23:25.590Z,86.07
2022-11-09T03:24:25.587Z,85.73
2022-11-09T03:25:25.657Z,85.26
2022-11-09T03:26:25.582Z,84.88
2022-11-09T03:27:25.550Z,84.50
2022-11-09T03:28:25.555Z,84.27
2022-11-09T03:29:25.613Z,84.19
2022-11-09T03:30:25.586Z,84.59
2022-11-09T03:31:25.519Z,84.84
2022-11-09T03:32:25.509Z,85.04
2022-11-09T03:33:25.494Z,85.12
2022-11-09T03:34:25.505Z,85.15
2022-11-09T03:35:25.466Z,85.15
2022-11-09T03:36:25.502Z,84.69
2022-11-09T03:37:25.497Z,84.21
2022-11-09T03:38:25.449Z,83.62
2022-11-09T03:39:25.438Z,83.68
2022-11-09T03:40:25.483Z,83.80
2022-11-09T03:41:25.407Z,84.29
2022-11-09T03:42:25.404Z,84.40
2022-11-09T03:43:25.396Z,84.65
2022-11-09T03:44:25.409Z,84.55
2022-11-09T03:45:25.380Z,83.81
2022-11-09T03:46:25.430Z,83.94
2022-11-09T03:47:25.354Z,83.49
2022-11-09T03:48:25.347Z,83.81
2022-11-09T03:49:25.345Z,82.74
2022-11-09T03:50:25.395Z,82.12
2022-11-09T03:51:25.325Z,81.79
2022-11-09T03:52:25.311Z,80.92
2022-11-09T03:53:25.299Z,80.43
2022-11-09T03:54:25.303Z,80.00
2022-11-09T03:55:25.284Z,79.73
2022-11-09T03:56:25.314Z,79.61
2022-11-09T03:57:25.301Z,79.72
2022-11-09T03:58:25.305Z,79.25
2022-11-09T03:59:25.234Z,79.15
2022-11-09T04:00:25.228Z,78.89
2022-11-09T04:01:25.295Z,78.73
2022-11-09T04:02:25.253Z,78.61
2022-11-09T04:03:25.195Z,78.52
2022-11-09T04:04:25.190Z,78.88
2022-11-09T04:05:25.172Z,78.75
2022-11-09T04:06:25.212Z,78.83
2022-11-09T04:07:25.151Z,78.48
2022-11-09T04:08:25.140Z,78.45
2022-11-09T04:09:25.140Z,77.93
2022-11-09T04:10:25.122Z,78.11
2022-11-09T04:11:25.158Z,77.78
2022-11-09T04:12:25.211Z,77.59
2022-11-09T04:13:25.093Z,77.41
2022-11-09T04:14:25.128Z,77.41
2022-11-09T04:15:25.090Z,77.55
2022-11-09T04:16:25.076Z,77.15
2022-11-09T04:17:25.065Z,76.71
2022-11-09T04:18:25.038Z,76.57
2022-11-09T04:19:25.086Z,77.15
2022-11-09T04:20:25.021Z,76.90
2022-11-09T04:21:25.020Z,76.88
2022-11-09T04:22:25.049Z,76.92
2022-11-09T04:23:25.003Z,77.44
2022-11-09T04:24:24.985Z,77.87
2022-11-09T04:25:25.060Z,77.68
2022-11-09T04:26:24.965Z,77.40
2022-11-09T04:27:24.953Z,76.94
2022-11-09T04:28:24.991Z,76.65
2022-11-09T04:29:24.941Z,76.67
2022-11-09T04:30:24.926Z,77.43
2022-11-09T04:31:28.034Z,77.71
2022-11-09T04:32:24.930Z,76.64
2022-11-09T04:33:24.937Z,76.48
2022-11-09T04:34:24.929Z,76.27
2022-11-09T04:35:24.984Z,76.09
2022-11-09T04:36:24.868Z,76.40
2022-11-09T04:37:24.931Z,76.29
2022-11-09T04:38:24.909Z,76.52
2022-11-09T04:39:24.853Z,76.49
2022-11-09T04:40:24.876Z,76.64
2022-11-09T04:41:24.820Z,76.68
2022-11-09T04:42:24.818Z,77.11
2022-11-09T04:43:24.840Z,77.18
2022-11-09T04:44:24.784Z,76.99
2022-11-09T04:45:24.824Z,76.66
2022-11-09T04:46:24.811Z,77.01
2022-11-09T04:47:24.763Z,77.71
2022-11-09T04:48:24.757Z,78.14
2022-11-09T04:49:24.783Z,77.44
2022-11-09T04:50:24.777Z,76.91
2022-11-09T04:51:24.716Z,77.31
2022-11-09T04:52:24.712Z,76.32
2022-11-09T04:53:25.256Z,75.17
2022-11-09T04:54:24.691Z,74.12
2022-11-09T04:55:24.737Z,73.02
2022-11-09T04:56:24.730Z,72.24
2022-11-09T04:57:24.654Z,71.94
2022-11-09T04:58:25.190Z,71.83
2022-11-09T04:59:24.679Z,71.45
2022-11-09T05:00:24.628Z,71.30
2022-11-09T05:01:24.616Z,71.42
2022-11-09T05:02:24.660Z,71.17
2022-11-09T05:03:24.680Z,70.91
2022-11-09T05:04:24.601Z,70.81
2022-11-09T05:05:24.592Z,70.63
2022-11-09T05:06:24.615Z,70.15
2022-11-09T05:07:24.601Z,69.68
2022-11-09T05:08:24.563Z,69.39
2022-11-09T05:09:24.585Z,69.20
2022-11-09T05:10:24.615Z,69.03
2022-11-09T05:11:24.576Z,69.07
2022-11-09T05:12:24.509Z,69.39
2022-11-09T05:13:24.506Z,69.86
2022-11-09T05:14:24.516Z,70.30
2022-11-09T05:15:24.474Z,71.01
2022-11-09T05:16:24.541Z,71.37
2022-11-09T05:17:24.525Z,71.72
2022-11-09T05:18:24.447Z,72.66
2022-11-09T05:19:24.484Z,73.17
2022-11-09T05:20:24.435Z,73.47
2022-11-09T05:21:24.442Z,73.79
2022-11-09T05:22:24.429Z,74.12
2022-11-09T05:23:24.651Z,74.21
2022-11-09T05:24:24.431Z,74.52
2022-11-09T05:25:24.390Z,74.78
2022-11-09T05:26:24.461Z,74.75
2022-11-09T05:27:24.361Z,74.70
2022-11-09T05:28:24.350Z,74.80
2022-11-09T05:29:24.450Z,75.18
2022-11-09T05:30:24.328Z,75.48
2022-11-09T05:31:24.435Z,75.54
2022-11-09T05:32:24.352Z,75.64
2022-11-09T05:33:24.324Z,75.90
2022-11-09T05:34:24.325Z,76.37
2022-11-09T05:35:24.338Z,77.09
2022-11-09T05:36:24.339Z,77.60
2022-11-09T05:38:46.444Z,78.71
2022-11-09T05:39:36.938Z,79.45
2022-11-09T05:40:36.938Z,80.37
2022-11-09T05:42:21.320Z,81.00
2022-11-09T05:42:36.955Z,81.40
2022-11-09T05:43:36.900Z,82.29
2022-11-09T05:44:36.897Z,82.48
2022-11-09T05:45:42.629Z,82.77
2022-11-09T05:46:36.909Z,83.09
2022-11-09T05:47:37.016Z,83.22
2022-11-09T05:48:36.913Z,83.53
2022-11-09T05:49:36.838Z,83.92
2022-11-09T05:50:36.829Z,84.22
2022-11-09T05:51:36.783Z,84.16
2022-11-09T05:52:36.811Z,84.19
2022-11-09T05:53:36.812Z,83.93
2022-11-09T05:54:36.776Z,83.68
2022-11-09T05:55:36.777Z,83.57
2022-11-09T05:56:36.739Z,83.49
2022-11-09T05:57:36.712Z,83.32
2022-11-09T05:58:36.744Z,83.11
2022-11-09T05:59:36.754Z,82.93
2022-11-09T06:00:36.690Z,82.67
2022-11-09T06:01:36.678Z,82.16
2022-11-09T06:02:36.719Z,81.92
2022-11-09T06:03:36.715Z,81.94
2022-11-09T06:04:36.667Z,81.98
2022-11-09T06:05:36.703Z,81.99
2022-11-09T06:06:36.682Z,82.02
2022-11-09T06:07:36.617Z,82.23
2022-11-09T06:08:36.610Z,82.29
2022-11-09T06:09:36.668Z,82.34
2022-11-09T06:10:36.577Z,82.71
2022-11-09T06:11:36.624Z,82.91
2022-11-09T06:12:36.579Z,83.26
2022-11-09T06:13:36.596Z,84.09
2022-11-09T06:14:36.549Z,84.35
2022-11-09T06:15:36.600Z,84.73
2022-11-09T06:16:36.569Z,85.01
2022-11-09T06:17:36.547Z,85.16
2022-11-09T06:18:36.543Z,85.68
2022-11-09T06:19:36.625Z,85.83
2022-11-09T06:20:36.498Z,86.15
2022-11-09T06:21:36.489Z,86.12
2022-11-09T06:22:36.531Z,85.89
2022-11-09T06:23:36.540Z,85.77
2022-11-09T06:24:36.498Z,85.75
2022-11-09T06:25:36.432Z,85.94
2022-11-09T06:26:36.445Z,86.14
2022-11-09T06:27:36.435Z,86.35
2022-11-09T06:28:36.456Z,86.67
2022-11-09T06:29:36.438Z,86.72
2022-11-09T06:30:36.431Z,86.66
2022-11-09T06:31:36.466Z,86.52
2022-11-09T06:32:36.370Z,86.67
2022-11-09T06:33:36.419Z,86.96
2022-11-09T06:34:36.358Z,86.71
2022-11-09T06:35:36.390Z,86.51
2022-11-09T06:36:36.323Z,86.70
2022-11-09T06:37:36.356Z,87.01
2022-11-09T06:38:36.311Z,86.93
2022-11-09T06:39:36.304Z,86.84
2022-11-09T06:40:36.321Z,86.80
2022-11-09T06:41:36.277Z,86.87
2022-11-09T06:42:36.310Z,86.86
2022-11-09T06:43:36.284Z,86.62
2022-11-09T06:44:36.252Z,86.63
2022-11-09T06:45:36.236Z,86.72
2022-11-09T06:46:36.294Z,86.87
2022-11-09T06:47:36.219Z,86.97
2022-11-09T06:48:36.319Z,87.06
2022-11-09T06:49:36.257Z,87.17
2022-11-09T06:50:36.190Z,87.39
2022-11-09T06:51:36.220Z,87.60
2022-11-09T06:52:36.187Z,87.74
2022-11-09T06:53:36.225Z,87.91
2022-11-09T06:54:36.222Z,88.11
2022-11-09T06:55:36.149Z,88.21
2022-11-09T06:56:36.126Z,88.31
2022-11-09T06:57:36.147Z,88.45
2022-11-09T06:58:36.203Z,88.47
2022-11-09T06:59:36.116Z,88.24
2022-11-09T07:00:36.095Z,88.44
2022-11-09T07:01:36.133Z,88.56
2022-11-09T07:02:36.149Z,88.52
2022-11-09T07:03:36.054Z,88.58
2022-11-09T07:04:36.058Z,88.63
2022-11-09T07:05:36.173Z,88.53
2022-11-09T07:06:36.109Z,88.51
2022-11-09T07:07:36.049Z,88.56
2022-11-09T07:08:36.010Z,88.51
2022-11-09T07:09:36.137Z,88.50
2022-11-09T07:10:36.893Z,88.49
2022-11-09T07:11:35.972Z,88.54
2022-11-09T07:12:35.993Z,88.59
2022-11-09T07:13:35.971Z,88.56
2022-11-09T07:14:35.948Z,88.67
2022-11-09T07:15:35.934Z,88.72
2022-11-09T07:16:35.967Z,88.70
2022-11-09T07:17:36.044Z,88.67
2022-11-09T07:18:35.910Z,88.55
2022-11-09T07:19:35.997Z,88.47
2022-11-09T07:20:35.894Z,88.49
2022-11-09T07:21:35.995Z,88.41
2022-11-09T07:22:35.942Z,88.62
2022-11-09T07:23:35.854Z,88.79
2022-11-09T07:24:35.843Z,89.07
2022-11-09T07:25:35.847Z,89.15
2022-11-09T07:26:35.836Z,89.19
2022-11-09T07:27:35.863Z,89.35
2022-11-09T07:28:35.849Z,88.91
2022-11-09T07:29:35.816Z,88.01
2022-11-09T07:30:35.831Z,87.61
2022-11-09T07:31:35.799Z,87.24
2022-11-09T07:33:06.880Z,87.13
2022-11-09T07:33:35.773Z,87.13
2022-11-09T07:34:35.855Z,87.47
2022-11-09T07:35:35.744Z,87.41
2022-11-09T07:36:35.788Z,87.19
2022-11-09T07:37:35.725Z,87.32
2022-11-09T07:38:35.714Z,87.16
2022-11-09T07:39:35.707Z,87.14
2022-11-09T07:40:35.725Z,87.10
2022-11-09T07:41:35.678Z,86.88
2022-11-09T07:42:35.723Z,86.62
2022-11-09T07:43:35.686Z,86.64
2022-11-09T07:44:35.645Z,86.65
2022-11-09T07:45:35.649Z,86.44
2022-11-09T07:46:35.646Z,86.04
2022-11-09T07:47:35.660Z,85.76
2022-11-09T07:48:35.654Z,85.76
2022-11-09T07:49:35.612Z,85.84
2022-11-09T07:50:35.646Z,85.72
2022-11-09T07:51:35.653Z,85.86
2022-11-09T07:52:35.650Z,85.95
2022-11-09T07:53:35.595Z,86.12
2022-11-09T07:54:35.605Z,86.38
2022-11-09T07:55:35.551Z,86.51
2022-11-09T07:56:35.538Z,86.33
2022-11-09T07:57:35.540Z,86.49
2022-11-09T07:58:35.574Z,86.44
2022-11-09T07:59:35.530Z,86.25
2022-11-09T08:00:35.496Z,86.19
2022-11-09T08:01:35.537Z,86.30
2022-11-09T08:02:35.473Z,86.41
2022-11-09T08:03:35.508Z,86.67
2022-11-09T08:04:35.481Z,86.68
2022-11-09T08:05:35.437Z,86.68
2022-11-09T08:06:35.515Z,86.54
2022-11-09T08:07:35.419Z,86.89
2022-11-09T08:08:35.445Z,87.01
2022-11-09T08:09:35.465Z,86.84
2022-11-09T08:10:35.442Z,86.76
2022-11-09T08:11:35.453Z,86.89
2022-11-09T08:12:37.194Z,87.13
2022-11-09T08:13:35.925Z,87.19
2022-11-09T08:14:35.352Z,87.27
2022-11-09T08:15:35.348Z,87.33
2022-11-09T08:16:37.901Z,87.31
2022-11-09T08:17:35.362Z,87.26
2022-11-09T08:18:35.364Z,87.12
2022-11-09T08:19:35.307Z,86.69
2022-11-09T08:20:35.364Z,86.29
2022-11-09T08:21:35.279Z,86.24
2022-11-09T08:22:35.305Z,85.91
2022-11-09T08:23:35.275Z,86.02
2022-11-09T08:24:35.253Z,85.51
2022-11-09T08:25:35.265Z,85.10
2022-11-09T08:26:35.276Z,85.14
2022-11-09T08:27:35.249Z,85.17
2022-11-09T08:28:35.271Z,85.26
2022-11-09T08:29:35.218Z,85.26
2022-11-09T08:30:35.275Z,85.24
2022-11-09T08:31:35.186Z,85.10
2022-11-09T08:32:35.179Z,84.87
2022-11-09T08:33:35.202Z,84.82
2022-11-09T08:34:35.199Z,84.89
2022-11-09T08:35:35.166Z,84.82
2022-11-09T08:36:35.124Z,85.03
2022-11-09T08:37:35.165Z,85.26
2022-11-09T08:38:35.129Z,85.21
2022-11-09T08:39:35.100Z,85.23
2022-11-09T08:40:35.155Z,84.98
2022-11-09T08:41:35.090Z,84.76
2022-11-09T08:42:35.125Z,84.44
2022-11-09T08:43:35.084Z,84.51
2022-11-09T08:44:35.056Z,84.33
2022-11-09T08:45:35.077Z,84.27
2022-11-09T08:46:40.849Z,84.03
2022-11-09T08:47:35.065Z,84.17
2022-11-09T08:48:35.022Z,83.95
2022-11-09T08:49:35.002Z,84.00
2022-11-09T08:50:34.997Z,83.97
2022-11-09T08:51:34.982Z,84.04
2022-11-09T08:52:35.019Z,83.89
2022-11-09T08:53:35.075Z,84.02
2022-11-09T08:54:34.946Z,84.20
2022-11-09T08:55:34.937Z,84.20
2022-11-09T08:56:34.935Z,84.36
2022-11-09T08:57:34.927Z,84.24
2022-11-09T08:58:35.000Z,84.29
2022-11-09T08:59:34.903Z,84.06
2022-11-09T09:00:34.943Z,84.11
2022-11-09T09:01:34.976Z,84.34
2022-11-09T09:02:34.908Z,84.12
2022-11-09T09:03:34.928Z,83.96
2022-11-09T09:04:34.871Z,83.81
2022-11-09T09:05:34.849Z,83.93
2022-11-09T09:06:34.925Z,83.95
2022-11-09T09:07:34.821Z,84.14
2022-11-09T09:08:34.896Z,84.29
2022-11-09T09:09:34.800Z,84.10
2022-11-09T09:10:34.791Z,83.91
2022-11-09T09:11:34.833Z,83.82
2022-11-09T09:12:34.766Z,83.64
2022-11-09T09:13:37.863Z,83.93
2022-11-09T09:14:34.758Z,83.97
2022-11-09T09:15:34.748Z,84.10
2022-11-09T09:16:34.770Z,84.52
2022-11-09T09:17:34.727Z,84.60
2022-11-09T09:18:34.704Z,84.81
2022-11-09T09:19:34.782Z,84.66
2022-11-09T09:20:34.756Z,84.73
2022-11-09T09:21:34.709Z,85.01
2022-11-09T09:22:34.758Z,84.85
2022-11-09T09:23:34.670Z,84.87
2022-11-09T09:24:34.697Z,84.96
2022-11-09T09:25:34.699Z,85.11
2022-11-09T09:26:34.634Z,85.42
2022-11-09T09:27:34.615Z,85.41
2022-11-09T09:28:34.650Z,85.45
2022-11-09T09:29:34.614Z,85.05
2022-11-09T09:30:34.638Z,84.89
2022-11-09T09:31:34.639Z,84.78
2022-11-09T09:32:34.577Z,84.62
2022-11-09T09:33:34.558Z,84.15
2022-11-09T09:34:34.555Z,84.14
2022-11-09T09:35:34.543Z,83.95
2022-11-09T09:36:34.531Z,83.87
2022-11-09T09:37:34.582Z,83.86
2022-11-09T09:38:34.510Z,83.72
2022-11-09T09:39:34.533Z,83.76
2022-11-09T09:40:34.493Z,83.90
2022-11-09T09:41:34.530Z,84.21
2022-11-09T09:42:34.466Z,84.33
2022-11-09T09:43:36.183Z,84.44
2022-11-09T09:44:34.451Z,84.41
2022-11-09T09:45:34.470Z,84.46
2022-11-09T09:46:34.511Z,84.38
2022-11-09T09:47:34.512Z,84.35
2022-11-09T09:48:34.485Z,84.45
2022-11-09T09:49:34.484Z,84.31
2022-11-09T09:50:34.526Z,83.76
2022-11-09T09:51:34.378Z,83.66
2022-11-09T09:52:34.385Z,83.68
2022-11-09T09:53:34.417Z,83.81
2022-11-09T09:54:34.347Z,83.65
2022-11-09T09:55:34.384Z,83.48
2022-11-09T09:56:34.337Z,83.33
2022-11-09T09:57:39.010Z,83.13
2022-11-09T09:58:34.333Z,83.23
2022-11-09T09:59:34.300Z,83.19
2022-11-09T10:00:34.404Z,82.91
2022-11-09T10:01:34.330Z,82.41
2022-11-09T10:02:34.467Z,82.02
2022-11-09T10:03:34.252Z,81.47
2022-11-09T10:04:34.298Z,81.56
2022-11-09T10:05:34.239Z,81.20
2022-11-09T10:06:34.345Z,81.42
2022-11-09T10:07:34.229Z,81.43
2022-11-09T10:08:34.291Z,81.50
2022-11-09T10:09:34.199Z,81.81
2022-11-09T10:10:34.225Z,81.75
2022-11-09T10:11:34.226Z,81.60
2022-11-09T10:12:34.167Z,81.69
2022-11-09T10:13:34.153Z,82.05
2022-11-09T10:14:34.160Z,81.76
2022-11-09T10:15:34.138Z,81.79
2022-11-09T10:16:34.182Z,81.72
2022-11-09T10:17:34.176Z,81.25
2022-11-09T10:18:34.104Z,80.98
2022-11-09T10:19:34.117Z,81.00
2022-11-09T10:20:34.101Z,80.13
2022-11-09T10:21:34.071Z,79.92
2022-11-09T10:22:34.130Z,79.22
2022-11-09T10:23:34.117Z,79.41
2022-11-09T10:24:34.046Z,79.24
2022-11-09T10:26:34.088Z,78.26
2022-11-09T10:27:34.115Z,78.46
2022-11-09T10:28:47.928Z,78.24
2022-11-09T10:29:34.013Z,78.64
2022-11-09T10:30:34.007Z,78.24
2022-11-09T10:31:34.063Z,78.52
2022-11-09T10:32:33.966Z,78.06
2022-11-09T10:33:33.945Z,77.99
2022-11-09T10:34:33.979Z,77.01
2022-11-09T10:35:33.976Z,76.82
2022-11-09T10:36:33.923Z,76.67
2022-11-09T10:37:33.968Z,76.33
2022-11-09T10:38:33.938Z,76.74
2022-11-09T10:39:33.897Z,77.28
2022-11-09T10:40:33.887Z,76.54
2022-11-09T10:41:33.880Z,76.92
2022-11-09T10:42:33.923Z,76.85
2022-11-09T10:43:33.903Z,76.18
2022-11-09T10:44:33.971Z,76.43
2022-11-09T10:45:33.884Z,76.49
2022-11-09T10:46:33.828Z,76.07
2022-11-09T10:47:33.808Z,75.81
2022-11-09T10:48:33.801Z,75.36
2022-11-09T10:49:33.831Z,75.48
2022-11-09T10:50:33.786Z,75.26
2022-11-09T10:51:33.867Z,75.23
2022-11-09T10:52:33.819Z,75.33
2022-11-09T10:53:33.755Z,74.72
2022-11-09T10:54:33.750Z,74.33
2022-11-09T10:55:33.740Z,73.80
2022-11-09T10:56:47.234Z,73.33
2022-11-09T10:57:33.770Z,73.52
2022-11-09T10:58:33.841Z,74.44
2022-11-09T10:59:33.689Z,74.56
2022-11-09T11:00:33.683Z,74.26
2022-11-09T11:01:33.734Z,74.21
2022-11-09T11:02:33.667Z,74.18
2022-11-09T11:03:33.772Z,74.43
2022-11-09T11:04:33.642Z,74.60
2022-11-09T11:05:33.681Z,74.65
2022-11-09T11:06:33.669Z,75.25
2022-11-09T11:07:33.642Z,75.37
2022-11-09T11:08:33.651Z,75.61
2022-11-09T11:09:33.617Z,75.45
2022-11-09T11:10:33.635Z,75.08
2022-11-09T11:11:35.629Z,74.69
2022-11-09T11:12:33.602Z,74.79
2022-11-09T11:13:33.662Z,74.77
2022-11-09T11:14:33.584Z,74.86
2022-11-09T11:15:33.613Z,75.01
2022-11-09T11:16:33.525Z,74.87
2022-11-09T11:17:33.510Z,74.94
2022-11-09T11:18:33.501Z,74.98
2022-11-09T11:19:33.491Z,74.84
2022-11-09T11:20:33.563Z,74.86
2022-11-09T11:21:33.483Z,75.06
2022-11-09T11:22:33.514Z,75.10
2022-11-09T11:23:33.554Z,75.00
2022-11-09T11:24:33.469Z,74.44
2022-11-09T11:25:33.433Z,74.20
2022-11-09T11:26:33.447Z,74.16
2022-11-09T11:27:33.407Z,74.18
2022-11-09T11:28:33.401Z,74.41
2022-11-09T11:29:33.404Z,74.51
2022-11-09T11:30:33.408Z,74.55
2022-11-09T11:31:33.373Z,74.28
2022-11-09T11:32:33.392Z,74.46
2022-11-09T11:33:33.350Z,73.73
2022-11-09T11:34:58.497Z,73.84
2022-11-09T11:35:33.345Z,73.73
2022-11-09T11:36:33.371Z,73.92
2022-11-09T11:37:33.306Z,73.93
2022-11-09T11:38:33.311Z,73.91
2022-11-09T11:39:33.286Z,73.86
2022-11-09T11:40:33.314Z,73.82
2022-11-09T11:41:33.319Z,73.73
2022-11-09T11:42:33.268Z,73.93
2022-11-09T11:43:33.287Z,73.76
2022-11-09T11:44:33.249Z,73.56
2022-11-09T11:45:40.711Z,73.43
2022-11-09T11:46:33.225Z,73.72
2022-11-09T11:47:33.283Z,73.31
2022-11-09T11:48:33.234Z,73.44
2022-11-09T11:49:33.217Z,73.17
2022-11-09T11:50:33.195Z,73.50
2022-11-09T11:51:33.182Z,73.05
2022-11-09T11:52:33.175Z,73.27
2022-11-09T11:53:33.276Z,73.20
2022-11-09T11:54:33.183Z,73.08
2022-11-09T11:55:33.165Z,73.32
2022-11-09T11:56:33.123Z,72.96
2022-11-09T11:57:33.105Z,72.86
2022-11-09T11:58:33.098Z,73.21
2022-11-09T11:59:33.212Z,73.24
2022-11-09T12:00:33.163Z,73.04
2022-11-09T12:01:33.090Z,73.23
2022-11-09T12:02:33.138Z,73.83
2022-11-09T12:03:33.078Z,73.97
2022-11-09T12:04:33.049Z,74.09
2022-11-09T12:05:33.046Z,73.53
2022-11-09T12:06:33.110Z,73.77
2022-11-09T12:07:33.032Z,73.93
2022-11-09T12:08:33.001Z,73.49
2022-11-09T12:09:33.011Z,73.12
2022-11-09T12:10:33.028Z,73.81
2022-11-09T12:11:32.973Z,74.29
2022-11-09T12:12:32.983Z,74.56
2022-11-09T12:13:33.033Z,74.89
2022-11-09T12:14:32.970Z,74.98
2022-11-09T12:15:32.972Z,74.34
2022-11-09T12:16:32.956Z,73.88
2022-11-09T12:17:33.002Z,73.98
2022-11-09T12:18:32.907Z,73.44
2022-11-09T12:19:35.752Z,72.74
2022-11-09T12:20:32.886Z,72.89
2022-11-09T12:21:33.035Z,73.00
2022-11-09T12:22:32.923Z,73.27
2022-11-09T12:23:32.891Z,73.45
2022-11-09T12:24:32.830Z,73.18
2022-11-09T12:25:32.888Z,73.12
2022-11-09T12:26:32.824Z,72.93
2022-11-09T12:27:33.536Z,73.00
2022-11-09T12:28:32.849Z,73.35
2022-11-09T12:29:32.813Z,73.26
2022-11-09T12:30:32.772Z,73.43
2022-11-09T12:31:32.767Z,73.32
2022-11-09T12:32:32.759Z,73.44
2022-11-09T12:33:35.613Z,73.57
2022-11-09T12:34:32.747Z,73.47
2022-11-09T12:35:32.724Z,73.48
2022-11-09T12:36:32.780Z,73.88
2022-11-09T12:37:32.761Z,73.80
2022-11-09T12:38:32.738Z,73.89
2022-11-09T12:39:32.697Z,74.57
2022-11-09T12:40:32.690Z,74.29
2022-11-09T12:41:32.657Z,74.30
2022-11-09T12:42:32.649Z,74.32
2022-11-09T12:43:32.689Z,73.97
2022-11-09T12:44:32.654Z,74.05
2022-11-09T12:45:32.648Z,73.33
2022-11-09T12:46:32.616Z,73.22
2022-11-09T12:47:32.617Z,72.34
2022-11-09T12:48:32.611Z,72.20
2022-11-09T12:49:32.648Z,72.82
2022-11-09T12:50:32.581Z,72.79
2022-11-09T12:51:32.571Z,72.46
2022-11-09T12:52:32.555Z,72.89
2022-11-09T12:53:32.595Z,73.65
2022-11-09T12:54:32.534Z,73.47
2022-11-09T12:55:32.516Z,73.71